sensor_id;sensor_type;location;lat;lon;timestamp;pressure;altitude;pressure_sealevel;temperature;humidity
72465;BME280;60471;52.150;4.508;2023-08-20T00:00:00;101774.47;;;20.76;64.99
72465;BME280;60471;52.150;4.508;2023-08-20T00:02:28;101781.16;;;20.82;64.95
72465;BME280;60471;52.150;4.508;2023-08-20T00:04:58;101785.56;;;20.83;64.72
72465;BME280;60471;52.150;4.508;2023-08-20T00:07:25;101785.91;;;20.78;64.89
72465;BME280;60471;52.150;4.508;2023-08-20T00:09:52;101782.78;;;20.84;64.61
72465;BME280;60471;52.150;4.508;2023-08-20T00:12:18;101780.22;;;20.59;65.87
72465;BME280;60471;52.150;4.508;2023-08-20T00:15:01;101774.91;;;20.70;65.23
72465;BME280;60471;52.150;4.508;2023-08-20T00:17:36;101778.31;;;20.72;65.18
72465;BME280;60471;52.150;4.508;2023-08-20T00:20:09;101777.59;;;20.70;65.68
72465;BME280;60471;52.150;4.508;2023-08-20T00:22:39;101788.91;;;20.63;65.80
72465;BME280;60471;52.150;4.508;2023-08-20T00:25:12;101791.94;;;20.58;65.83
72465;BME280;60471;52.150;4.508;2023-08-20T00:27:40;101790.03;;;20.71;65.48
72465;BME280;60471;52.150;4.508;2023-08-20T00:30:08;101805.16;;;20.72;65.49
72465;BME280;60471;52.150;4.508;2023-08-20T00:32:36;101806.66;;;20.76;65.83
72465;BME280;60471;52.150;4.508;2023-08-20T00:35:03;101814.00;;;20.86;65.21
72465;BME280;60471;52.150;4.508;2023-08-20T00:37:30;101813.25;;;20.83;65.39
72465;BME280;60471;52.150;4.508;2023-08-20T00:39:57;101815.53;;;20.77;65.65
72465;BME280;60471;52.150;4.508;2023-08-20T00:42:24;101815.66;;;20.75;66.23
72465;BME280;60471;52.150;4.508;2023-08-20T00:44:53;101816.97;;;20.70;66.24
72465;BME280;60471;52.150;4.508;2023-08-20T00:47:20;101818.91;;;20.68;66.66
72465;BME280;60471;52.150;4.508;2023-08-20T00:49:47;101829.72;;;20.55;66.97
72465;BME280;60471;52.150;4.508;2023-08-20T00:52:16;101828.56;;;20.46;67.80
72465;BME280;60471;52.150;4.508;2023-08-20T00:54:44;101843.56;;;20.36;68.04
72465;BME280;60471;52.150;4.508;2023-08-20T00:57:14;101842.41;;;20.27;68.84
72465;BME280;60471;52.150;4.508;2023-08-20T00:59:47;101846.13;;;20.38;68.88
72465;BME280;60471;52.150;4.508;2023-08-20T01:02:16;101847.09;;;20.37;68.64
72465;BME280;60471;52.150;4.508;2023-08-20T01:04:44;101847.09;;;20.49;68.73
72465;BME280;60471;52.150;4.508;2023-08-20T01:07:48;101844.19;;;20.52;68.12
72465;BME280;60471;52.150;4.508;2023-08-20T01:10:49;101851.34;;;20.65;67.77
72465;BME280;60471;52.150;4.508;2023-08-20T01:13:23;101843.72;;;20.59;68.06
72465;BME280;60471;52.150;4.508;2023-08-20T01:15:50;101839.41;;;20.45;68.78
72465;BME280;60471;52.150;4.508;2023-08-20T01:18:16;101843.00;;;20.57;68.59
72465;BME280;60471;52.150;4.508;2023-08-20T01:20:55;101838.94;;;20.51;68.50
72465;BME280;60471;52.150;4.508;2023-08-20T01:28:48;101829.75;;;20.42;69.71
72465;BME280;60471;52.150;4.508;2023-08-20T01:31:15;101829.41;;;20.47;69.17
72465;BME280;60471;52.150;4.508;2023-08-20T01:33:41;101837.22;;;20.50;68.99
72465;BME280;60471;52.150;4.508;2023-08-20T01:36:08;101831.22;;;20.46;69.29
72465;BME280;60471;52.150;4.508;2023-08-20T01:38:37;101845.06;;;20.53;69.44
72465;BME280;60471;52.150;4.508;2023-08-20T01:41:04;101844.88;;;20.43;69.51
72465;BME280;60471;52.150;4.508;2023-08-20T01:43:31;101839.28;;;20.46;69.15
72465;BME280;60471;52.150;4.508;2023-08-20T01:45:57;101830.38;;;20.46;69.46
72465;BME280;60471;52.150;4.508;2023-08-20T01:48:23;101828.88;;;20.42;69.67
72465;BME280;60471;52.150;4.508;2023-08-20T01:50:50;101831.47;;;20.43;70.17
72465;BME280;60471;52.150;4.508;2023-08-20T01:53:16;101821.28;;;20.36;69.84
72465;BME280;60471;52.150;4.508;2023-08-20T01:55:42;101821.38;;;20.34;69.99
72465;BME280;60471;52.150;4.508;2023-08-20T01:58:08;101828.97;;;20.40;69.62
72465;BME280;60471;52.150;4.508;2023-08-20T02:00:34;101823.59;;;20.40;69.50
72465;BME280;60471;52.150;4.508;2023-08-20T02:03:01;101820.63;;;20.45;69.54
72465;BME280;60471;52.150;4.508;2023-08-20T02:05:28;101826.72;;;20.47;69.45
72465;BME280;60471;52.150;4.508;2023-08-20T02:07:54;101824.28;;;20.44;69.32
72465;BME280;60471;52.150;4.508;2023-08-20T02:10:20;101830.88;;;20.51;69.12
72465;BME280;60471;52.150;4.508;2023-08-20T02:12:47;101816.44;;;20.41;69.41
72465;BME280;60471;52.150;4.508;2023-08-20T02:15:13;101836.72;;;20.32;69.54
72465;BME280;60471;52.150;4.508;2023-08-20T02:17:39;101836.63;;;20.34;69.97
72465;BME280;60471;52.150;4.508;2023-08-20T02:20:06;101834.91;;;20.33;70.30
72465;BME280;60471;52.150;4.508;2023-08-20T02:22:36;101831.03;;;20.37;70.17
72465;BME280;60471;52.150;4.508;2023-08-20T02:25:02;101833.31;;;20.30;70.39
72465;BME280;60471;52.150;4.508;2023-08-20T02:27:28;101831.38;;;20.32;70.07
72465;BME280;60471;52.150;4.508;2023-08-20T02:29:55;101824.22;;;20.20;70.41
72465;BME280;60471;52.150;4.508;2023-08-20T02:32:21;101825.00;;;20.09;71.09
72465;BME280;60471;52.150;4.508;2023-08-20T02:34:51;101828.41;;;20.11;71.29
72465;BME280;60471;52.150;4.508;2023-08-20T02:37:17;101838.59;;;20.06;71.77
72465;BME280;60471;52.150;4.508;2023-08-20T02:39:44;101836.91;;;19.92;72.21
72465;BME280;60471;52.150;4.508;2023-08-20T02:42:10;101837.63;;;20.07;71.90
72465;BME280;60471;52.150;4.508;2023-08-20T02:44:36;101849.53;;;20.03;72.02
72465;BME280;60471;52.150;4.508;2023-08-20T02:47:03;101854.78;;;20.05;71.85
72465;BME280;60471;52.150;4.508;2023-08-20T02:49:29;101850.09;;;19.95;71.98
72465;BME280;60471;52.150;4.508;2023-08-20T02:51:55;101861.13;;;19.91;71.18
72465;BME280;60471;52.150;4.508;2023-08-20T02:54:21;101872.19;;;19.99;71.69
72465;BME280;60471;52.150;4.508;2023-08-20T02:56:48;101874.63;;;20.02;71.93
72465;BME280;60471;52.150;4.508;2023-08-20T02:59:14;101872.28;;;19.97;72.39
72465;BME280;60471;52.150;4.508;2023-08-20T03:01:40;101872.72;;;19.91;72.92
72465;BME280;60471;52.150;4.508;2023-08-20T03:04:06;101877.00;;;19.68;74.06
72465;BME280;60471;52.150;4.508;2023-08-20T03:06:33;101872.81;;;19.90;73.26
72465;BME280;60471;52.150;4.508;2023-08-20T03:08:59;101874.94;;;19.85;73.60
72465;BME280;60471;52.150;4.508;2023-08-20T03:11:25;101871.22;;;19.87;73.58
72465;BME280;60471;52.150;4.508;2023-08-20T03:13:51;101867.88;;;19.96;73.99
72465;BME280;60471;52.150;4.508;2023-08-20T03:16:18;101873.69;;;19.90;73.54
72465;BME280;60471;52.150;4.508;2023-08-20T03:18:44;101873.34;;;19.82;74.00
72465;BME280;60471;52.150;4.508;2023-08-20T03:21:10;101868.75;;;19.59;75.50
72465;BME280;60471;52.150;4.508;2023-08-20T03:23:36;101867.53;;;19.50;75.78
72465;BME280;60471;52.150;4.508;2023-08-20T03:26:03;101862.53;;;19.58;75.64
72465;BME280;60471;52.150;4.508;2023-08-20T03:28:29;101860.81;;;19.57;76.16
72465;BME280;60471;52.150;4.508;2023-08-20T03:30:59;101862.63;;;19.44;77.02
72465;BME280;60471;52.150;4.508;2023-08-20T03:33:27;101854.81;;;19.54;76.41
72465;BME280;60471;52.150;4.508;2023-08-20T03:35:53;101859.72;;;19.34;77.31
72465;BME280;60471;52.150;4.508;2023-08-20T03:38:19;101867.19;;;19.42;77.05
72465;BME280;60471;52.150;4.508;2023-08-20T03:40:46;101859.38;;;19.39;77.38
72465;BME280;60471;52.150;4.508;2023-08-20T03:43:12;101860.34;;;19.38;77.36
72465;BME280;60471;52.150;4.508;2023-08-20T03:45:41;101859.28;;;19.53;76.98
72465;BME280;60471;52.150;4.508;2023-08-20T03:48:07;101868.28;;;19.52;76.91
72465;BME280;60471;52.150;4.508;2023-08-20T03:50:33;101872.28;;;19.59;76.87
72465;BME280;60471;52.150;4.508;2023-08-20T03:52:59;101870.34;;;19.61;76.61
72465;BME280;60471;52.150;4.508;2023-08-20T03:55:26;101870.06;;;19.66;76.51
72465;BME280;60471;52.150;4.508;2023-08-20T03:57:52;101873.03;;;19.61;76.50
72465;BME280;60471;52.150;4.508;2023-08-20T04:00:18;101874.09;;;19.59;76.54
72465;BME280;60471;52.150;4.508;2023-08-20T04:02:45;101883.31;;;19.67;76.62
72465;BME280;60471;52.150;4.508;2023-08-20T04:05:11;101882.03;;;19.73;76.64
72465;BME280;60471;52.150;4.508;2023-08-20T04:07:37;101889.94;;;19.75;76.53
72465;BME280;60471;52.150;4.508;2023-08-20T04:10:04;101887.09;;;19.78;76.68
72465;BME280;60471;52.150;4.508;2023-08-20T04:12:30;101885.25;;;19.78;76.83
72465;BME280;60471;52.150;4.508;2023-08-20T04:14:56;101890.72;;;19.89;76.87
72465;BME280;60471;52.150;4.508;2023-08-20T04:17:23;101895.09;;;19.90;77.04
72465;BME280;60471;52.150;4.508;2023-08-20T04:19:49;101886.44;;;20.00;75.90
72465;BME280;60471;52.150;4.508;2023-08-20T04:22:15;101890.28;;;19.95;75.80
72465;BME280;60471;52.150;4.508;2023-08-20T04:24:42;101895.09;;;19.90;76.01
72465;BME280;60471;52.150;4.508;2023-08-20T04:27:08;101895.50;;;19.97;75.50
72465;BME280;60471;52.150;4.508;2023-08-20T04:29:34;101906.78;;;19.77;76.19
72465;BME280;60471;52.150;4.508;2023-08-20T04:32:00;101902.91;;;19.93;76.33
72465;BME280;60471;52.150;4.508;2023-08-20T04:34:27;101899.94;;;19.98;76.11
72465;BME280;60471;52.150;4.508;2023-08-20T04:36:53;101910.09;;;19.93;76.21
72465;BME280;60471;52.150;4.508;2023-08-20T04:39:19;101901.19;;;20.05;75.95
72465;BME280;60471;52.150;4.508;2023-08-20T04:41:45;101902.50;;;20.00;75.87
72465;BME280;60471;52.150;4.508;2023-08-20T04:44:11;101907.13;;;19.97;76.12
72465;BME280;60471;52.150;4.508;2023-08-20T04:46:38;101905.69;;;20.05;75.02
72465;BME280;60471;52.150;4.508;2023-08-20T04:49:04;101900.22;;;20.06;75.84
72465;BME280;60471;52.150;4.508;2023-08-20T04:51:30;101905.94;;;19.76;76.46
72465;BME280;60471;52.150;4.508;2023-08-20T04:53:56;101915.69;;;19.77;76.81
72465;BME280;60471;52.150;4.508;2023-08-20T04:56:22;101917.06;;;19.83;76.86
72465;BME280;60471;52.150;4.508;2023-08-20T04:58:49;101917.81;;;19.85;76.27
72465;BME280;60471;52.150;4.508;2023-08-20T05:01:15;101915.25;;;19.83;76.87
72465;BME280;60471;52.150;4.508;2023-08-20T05:03:41;101914.59;;;19.80;76.61
72465;BME280;60471;52.150;4.508;2023-08-20T05:06:07;101912.91;;;19.79;76.38
72465;BME280;60471;52.150;4.508;2023-08-20T05:08:33;101915.56;;;19.66;76.97
72465;BME280;60471;52.150;4.508;2023-08-20T05:11:00;101914.72;;;19.65;76.56
72465;BME280;60471;52.150;4.508;2023-08-20T05:13:27;101910.00;;;19.69;76.77
72465;BME280;60471;52.150;4.508;2023-08-20T05:15:53;101904.25;;;19.48;77.56
72465;BME280;60471;52.150;4.508;2023-08-20T05:18:19;101906.81;;;19.50;77.49
72465;BME280;60471;52.150;4.508;2023-08-20T05:20:45;101909.50;;;19.37;77.75
72465;BME280;60471;52.150;4.508;2023-08-20T05:23:12;101913.03;;;19.50;77.36
72465;BME280;60471;52.150;4.508;2023-08-20T05:25:39;101912.56;;;19.58;76.77
72465;BME280;60471;52.150;4.508;2023-08-20T05:28:05;101914.84;;;19.50;77.16
72465;BME280;60471;52.150;4.508;2023-08-20T05:30:31;101915.50;;;19.53;77.17
72465;BME280;60471;52.150;4.508;2023-08-20T05:32:57;101912.06;;;19.51;77.33
72465;BME280;60471;52.150;4.508;2023-08-20T05:35:24;101914.75;;;19.51;77.49
72465;BME280;60471;52.150;4.508;2023-08-20T05:37:50;101922.41;;;19.57;76.95
72465;BME280;60471;52.150;4.508;2023-08-20T05:40:16;101922.09;;;19.62;77.14
72465;BME280;60471;52.150;4.508;2023-08-20T05:42:42;101918.47;;;19.76;76.86
72465;BME280;60471;52.150;4.508;2023-08-20T05:45:09;101923.09;;;19.99;76.12
72465;BME280;60471;52.150;4.508;2023-08-20T05:47:35;101928.09;;;20.16;75.06
72465;BME280;60471;52.150;4.508;2023-08-20T05:50:02;101919.53;;;20.11;75.15
72465;BME280;60471;52.150;4.508;2023-08-20T05:52:29;101915.91;;;20.00;75.80
72465;BME280;60471;52.150;4.508;2023-08-20T05:54:55;101922.53;;;20.07;75.40
72465;BME280;60471;52.150;4.508;2023-08-20T05:57:21;101920.50;;;20.10;75.44
72465;BME280;60471;52.150;4.508;2023-08-20T05:59:47;101917.47;;;20.15;75.12
72465;BME280;60471;52.150;4.508;2023-08-20T06:02:17;101914.59;;;20.05;75.52
72465;BME280;60471;52.150;4.508;2023-08-20T06:04:46;101912.34;;;20.12;75.71
72465;BME280;60471;52.150;4.508;2023-08-20T06:07:12;101918.03;;;20.20;75.32
72465;BME280;60471;52.150;4.508;2023-08-20T06:09:39;101910.97;;;20.19;75.54
72465;BME280;60471;52.150;4.508;2023-08-20T06:12:05;101914.81;;;20.15;76.21
72465;BME280;60471;52.150;4.508;2023-08-20T06:14:32;101916.75;;;20.13;76.45
72465;BME280;60471;52.150;4.508;2023-08-20T06:16:58;101923.47;;;20.31;75.50
72465;BME280;60471;52.150;4.508;2023-08-20T06:19:24;101925.69;;;20.50;75.09
72465;BME280;60471;52.150;4.508;2023-08-20T06:21:50;101924.81;;;20.62;74.69
72465;BME280;60471;52.150;4.508;2023-08-20T06:24:17;101930.28;;;20.61;75.02
72465;BME280;60471;52.150;4.508;2023-08-20T06:26:43;101929.38;;;20.73;75.01
72465;BME280;60471;52.150;4.508;2023-08-20T06:29:10;101927.59;;;20.73;74.53
72465;BME280;60471;52.150;4.508;2023-08-20T06:31:37;101926.69;;;20.86;73.86
72465;BME280;60471;52.150;4.508;2023-08-20T06:34:06;101929.44;;;20.97;73.66
72465;BME280;60471;52.150;4.508;2023-08-20T06:36:32;101932.53;;;21.14;73.21
72465;BME280;60471;52.150;4.508;2023-08-20T06:38:58;101930.09;;;21.11;73.08
72465;BME280;60471;52.150;4.508;2023-08-20T06:41:25;101939.44;;;20.82;73.85
72465;BME280;60471;52.150;4.508;2023-08-20T06:43:51;101938.75;;;20.67;75.02
72465;BME280;60471;52.150;4.508;2023-08-20T06:46:18;101928.22;;;21.01;74.03
72465;BME280;60471;52.150;4.508;2023-08-20T06:48:44;101935.06;;;21.05;73.96
72465;BME280;60471;52.150;4.508;2023-08-20T06:51:14;101942.97;;;21.19;73.60
72465;BME280;60471;52.150;4.508;2023-08-20T06:53:43;101947.56;;;21.30;72.88
72465;BME280;60471;52.150;4.508;2023-08-20T06:56:10;101947.06;;;21.36;72.95
72465;BME280;60471;52.150;4.508;2023-08-20T06:58:41;101939.75;;;21.14;73.27
72465;BME280;60471;52.150;4.508;2023-08-20T07:01:08;101944.75;;;21.31;72.95
72465;BME280;60471;52.150;4.508;2023-08-20T07:03:39;101952.22;;;21.39;72.14
72465;BME280;60471;52.150;4.508;2023-08-20T07:06:07;101952.34;;;21.25;72.13
72465;BME280;60471;52.150;4.508;2023-08-20T07:08:37;101957.56;;;21.28;72.42
72465;BME280;60471;52.150;4.508;2023-08-20T07:11:05;101960.66;;;21.46;71.64
72465;BME280;60471;52.150;4.508;2023-08-20T07:13:31;101968.78;;;21.33;71.54
72465;BME280;60471;52.150;4.508;2023-08-20T07:15:58;101965.22;;;21.56;70.89
72465;BME280;60471;52.150;4.508;2023-08-20T07:18:24;101971.13;;;21.37;72.16
72465;BME280;60471;52.150;4.508;2023-08-20T07:20:50;101957.22;;;21.79;70.54
72465;BME280;60471;52.150;4.508;2023-08-20T07:23:18;101967.69;;;21.70;71.14
72465;BME280;60471;52.150;4.508;2023-08-20T07:25:44;101974.13;;;21.57;69.54
72465;BME280;60471;52.150;4.508;2023-08-20T07:28:10;101977.19;;;21.52;68.98
72465;BME280;60471;52.150;4.508;2023-08-20T07:30:37;101975.88;;;21.69;69.54
72465;BME280;60471;52.150;4.508;2023-08-20T07:33:03;101974.00;;;21.93;68.77
72465;BME280;60471;52.150;4.508;2023-08-20T07:35:30;101971.34;;;22.05;68.16
72465;BME280;60471;52.150;4.508;2023-08-20T07:37:56;101970.94;;;21.98;67.82
72465;BME280;60471;52.150;4.508;2023-08-20T07:40:22;101974.19;;;22.14;66.65
72465;BME280;60471;52.150;4.508;2023-08-20T07:42:49;101981.09;;;21.94;67.81
72465;BME280;60471;52.150;4.508;2023-08-20T07:45:16;101980.66;;;22.34;66.93
72465;BME280;60471;52.150;4.508;2023-08-20T07:47:42;101986.88;;;22.46;66.04
72465;BME280;60471;52.150;4.508;2023-08-20T07:50:08;102000.34;;;22.46;65.88
72465;BME280;60471;52.150;4.508;2023-08-20T07:52:34;101993.25;;;22.45;65.26
72465;BME280;60471;52.150;4.508;2023-08-20T07:55:01;101996.44;;;22.50;64.72
72465;BME280;60471;52.150;4.508;2023-08-20T07:57:27;101997.28;;;22.73;64.33
72465;BME280;60471;52.150;4.508;2023-08-20T08:02:22;101993.34;;;22.77;63.75
72465;BME280;60471;52.150;4.508;2023-08-20T08:04:48;101996.41;;;23.06;62.77
72465;BME280;60471;52.150;4.508;2023-08-20T08:07:14;102002.38;;;23.09;62.60
72465;BME280;60471;52.150;4.508;2023-08-20T08:09:41;102009.38;;;23.01;62.89
72465;BME280;60471;52.150;4.508;2023-08-20T08:12:07;102005.81;;;23.00;62.70
72465;BME280;60471;52.150;4.508;2023-08-20T08:14:33;101998.16;;;22.84;63.97
72465;BME280;60471;52.150;4.508;2023-08-20T08:17:00;102001.72;;;23.28;62.63
72465;BME280;60471;52.150;4.508;2023-08-20T08:19:26;102002.00;;;23.14;63.91
72465;BME280;60471;52.150;4.508;2023-08-20T08:21:52;102001.22;;;23.34;62.92
72465;BME280;60471;52.150;4.508;2023-08-20T08:24:18;102002.47;;;23.51;62.00
72465;BME280;60471;52.150;4.508;2023-08-20T08:26:45;102000.31;;;23.13;62.79
72465;BME280;60471;52.150;4.508;2023-08-20T08:29:11;101997.59;;;23.56;61.34
72465;BME280;60471;52.150;4.508;2023-08-20T08:31:37;101990.13;;;23.81;60.26
72465;BME280;60471;52.150;4.508;2023-08-20T08:34:03;102012.81;;;23.99;60.14
72465;BME280;60471;52.150;4.508;2023-08-20T08:36:30;102006.56;;;23.78;59.34
72465;BME280;60471;52.150;4.508;2023-08-20T08:38:56;102005.81;;;23.96;59.54
72465;BME280;60471;52.150;4.508;2023-08-20T08:41:22;101999.44;;;24.18;59.76
72465;BME280;60471;52.150;4.508;2023-08-20T08:43:49;102006.72;;;24.48;59.05
72465;BME280;60471;52.150;4.508;2023-08-20T08:46:15;102004.53;;;23.70;62.12
72465;BME280;60471;52.150;4.508;2023-08-20T08:48:44;102006.09;;;23.93;61.31
72465;BME280;60471;52.150;4.508;2023-08-20T08:51:13;102006.88;;;23.84;61.06
72465;BME280;60471;52.150;4.508;2023-08-20T08:53:42;102015.56;;;24.09;60.28
72465;BME280;60471;52.150;4.508;2023-08-20T08:56:10;102011.78;;;24.42;58.59
72465;BME280;60471;52.150;4.508;2023-08-20T08:58:36;102007.28;;;24.21;58.05
72465;BME280;60471;52.150;4.508;2023-08-20T09:01:03;102021.84;;;23.88;59.10
72465;BME280;60471;52.150;4.508;2023-08-20T09:03:29;102019.59;;;23.93;55.48
72465;BME280;60471;52.150;4.508;2023-08-20T09:05:58;102029.44;;;24.46;54.89
72465;BME280;60471;52.150;4.508;2023-08-20T09:08:30;102020.56;;;24.34;56.05
72465;BME280;60471;52.150;4.508;2023-08-20T09:10:58;102025.47;;;24.29;57.48
72465;BME280;60471;52.150;4.508;2023-08-20T09:13:38;102011.63;;;24.34;58.51
72465;BME280;60471;52.150;4.508;2023-08-20T09:16:10;102027.25;;;24.40;55.72
72465;BME280;60471;52.150;4.508;2023-08-20T09:18:41;102028.16;;;24.50;54.77
72465;BME280;60471;52.150;4.508;2023-08-20T09:21:11;102021.28;;;24.15;57.25
72465;BME280;60471;52.150;4.508;2023-08-20T09:23:40;102015.38;;;24.21;58.04
72465;BME280;60471;52.150;4.508;2023-08-20T09:26:07;102015.19;;;24.74;55.81
72465;BME280;60471;52.150;4.508;2023-08-20T09:28:46;102014.63;;;24.71;54.94
72465;BME280;60471;52.150;4.508;2023-08-20T09:31:13;102009.78;;;25.14;54.22
72465;BME280;60471;52.150;4.508;2023-08-20T09:36:31;102016.75;;;25.07;52.18
72465;BME280;60471;52.150;4.508;2023-08-20T09:39:00;102017.59;;;24.16;54.33
72465;BME280;60471;52.150;4.508;2023-08-20T09:41:28;102016.00;;;24.55;53.77
72465;BME280;60471;52.150;4.508;2023-08-20T09:43:57;102029.06;;;24.60;52.96
72465;BME280;60471;52.150;4.508;2023-08-20T09:46:27;102026.19;;;24.52;51.75
72465;BME280;60471;52.150;4.508;2023-08-20T09:48:57;102030.38;;;24.66;50.37
72465;BME280;60471;52.150;4.508;2023-08-20T09:51:27;102030.34;;;24.56;51.51
72465;BME280;60471;52.150;4.508;2023-08-20T09:56:43;102035.56;;;25.38;49.76
72465;BME280;60471;52.150;4.508;2023-08-20T09:59:17;102050.06;;;25.37;49.02
72465;BME280;60471;52.150;4.508;2023-08-20T10:01:43;102040.66;;;25.22;49.72
72465;BME280;60471;52.150;4.508;2023-08-20T10:04:10;102032.16;;;25.55;49.36
72465;BME280;60471;52.150;4.508;2023-08-20T10:06:36;102034.59;;;25.87;49.17
72465;BME280;60471;52.150;4.508;2023-08-20T10:09:03;102026.31;;;25.98;49.34
72465;BME280;60471;52.150;4.508;2023-08-20T10:11:30;102024.75;;;25.57;50.58
72465;BME280;60471;52.150;4.508;2023-08-20T10:13:56;102039.22;;;25.27;52.75
72465;BME280;60471;52.150;4.508;2023-08-20T10:16:23;102031.03;;;25.87;50.87
72465;BME280;60471;52.150;4.508;2023-08-20T10:18:50;102031.72;;;25.31;50.99
72465;BME280;60471;52.150;4.508;2023-08-20T10:21:16;102030.06;;;25.78;48.98
72465;BME280;60471;52.150;4.508;2023-08-20T10:23:48;102033.56;;;25.59;47.42
72465;BME280;60471;52.150;4.508;2023-08-20T10:26:15;102025.13;;;25.04;50.96
72465;BME280;60471;52.150;4.508;2023-08-20T10:28:42;102024.06;;;25.65;49.53
72465;BME280;60471;52.150;4.508;2023-08-20T10:31:10;102027.63;;;25.85;48.95
72465;BME280;60471;52.150;4.508;2023-08-20T10:36:16;102025.31;;;25.32;49.12
72465;BME280;60471;52.150;4.508;2023-08-20T10:38:45;102031.03;;;25.87;48.00
72465;BME280;60471;52.150;4.508;2023-08-20T10:41:11;102021.06;;;25.68;49.59
72465;BME280;60471;52.150;4.508;2023-08-20T10:43:40;102018.94;;;25.52;50.52
72465;BME280;60471;52.150;4.508;2023-08-20T10:46:18;102014.75;;;26.16;50.32
72465;BME280;60471;52.150;4.508;2023-08-20T10:49:06;102021.97;;;26.44;50.24
72465;BME280;60471;52.150;4.508;2023-08-20T10:51:36;102017.88;;;26.68;50.34
72465;BME280;60471;52.150;4.508;2023-08-20T10:54:06;102014.81;;;26.53;50.61
72465;BME280;60471;52.150;4.508;2023-08-20T10:56:46;102022.28;;;26.22;49.14
72465;BME280;60471;52.150;4.508;2023-08-20T10:59:28;102020.31;;;26.05;49.93
72465;BME280;60471;52.150;4.508;2023-08-20T11:01:58;102023.44;;;26.19;49.67
72465;BME280;60471;52.150;4.508;2023-08-20T11:04:29;102018.13;;;26.37;48.80
72465;BME280;60471;52.150;4.508;2023-08-20T11:07:00;102024.03;;;26.04;48.07
72465;BME280;60471;52.150;4.508;2023-08-20T11:09:29;102021.09;;;26.44;47.95
72465;BME280;60471;52.150;4.508;2023-08-20T11:11:56;102028.06;;;26.46;47.12
72465;BME280;60471;52.150;4.508;2023-08-20T11:14:24;102019.00;;;26.28;48.20
72465;BME280;60471;52.150;4.508;2023-08-20T11:16:53;102017.97;;;26.76;46.50
72465;BME280;60471;52.150;4.508;2023-08-20T11:19:21;102019.41;;;26.98;44.45
72465;BME280;60471;52.150;4.508;2023-08-20T11:21:49;102024.31;;;26.94;45.28
72465;BME280;60471;52.150;4.508;2023-08-20T11:24:16;102016.69;;;26.33;46.20
72465;BME280;60471;52.150;4.508;2023-08-20T11:26:43;102027.22;;;26.83;44.56
72465;BME280;60471;52.150;4.508;2023-08-20T11:29:12;102027.91;;;26.85;44.71
72465;BME280;60471;52.150;4.508;2023-08-20T11:31:40;102017.13;;;26.75;43.77
72465;BME280;60471;52.150;4.508;2023-08-20T11:34:07;102013.63;;;26.93;44.32
72465;BME280;60471;52.150;4.508;2023-08-20T11:36:34;102015.28;;;26.29;46.49
72465;BME280;60471;52.150;4.508;2023-08-20T11:39:01;102019.56;;;27.24;44.62
72465;BME280;60471;52.150;4.508;2023-08-20T11:41:27;101997.66;;;27.35;42.19
72465;BME280;60471;52.150;4.508;2023-08-20T11:43:53;102004.97;;;26.79;44.77
72465;BME280;60471;52.150;4.508;2023-08-20T11:46:21;102007.41;;;27.10;44.65
72465;BME280;60471;52.150;4.508;2023-08-20T11:49:07;102016.09;;;27.67;44.72
72465;BME280;60471;52.150;4.508;2023-08-20T11:51:40;102010.44;;;27.25;45.41
72465;BME280;60471;52.150;4.508;2023-08-20T11:54:15;102018.81;;;27.67;46.45
72465;BME280;60471;52.150;4.508;2023-08-20T11:56:45;102021.94;;;27.98;44.04
72465;BME280;60471;52.150;4.508;2023-08-20T11:59:14;102021.81;;;28.51;43.55
72465;BME280;60471;52.150;4.508;2023-08-20T12:01:41;102019.00;;;28.69;42.72
72465;BME280;60471;52.150;4.508;2023-08-20T12:04:08;102022.56;;;29.04;42.05
72465;BME280;60471;52.150;4.508;2023-08-20T12:06:36;102033.78;;;29.09;41.99
72465;BME280;60471;52.150;4.508;2023-08-20T12:09:23;102031.34;;;29.48;40.43
72465;BME280;60471;52.150;4.508;2023-08-20T12:11:51;102036.78;;;29.48;40.60
72465;BME280;60471;52.150;4.508;2023-08-20T12:14:18;102037.63;;;28.90;41.75
72465;BME280;60471;52.150;4.508;2023-08-20T12:16:45;102037.50;;;28.66;42.71
72465;BME280;60471;52.150;4.508;2023-08-20T12:19:12;102032.81;;;29.34;41.54
72465;BME280;60471;52.150;4.508;2023-08-20T12:21:42;102036.09;;;28.10;42.80
72465;BME280;60471;52.150;4.508;2023-08-20T12:24:09;102048.63;;;28.02;43.28
72465;BME280;60471;52.150;4.508;2023-08-20T12:26:36;102039.09;;;27.45;44.75
72465;BME280;60471;52.150;4.508;2023-08-20T12:29:03;102033.97;;;28.39;42.08
72465;BME280;60471;52.150;4.508;2023-08-20T12:31:33;102041.19;;;28.91;40.21
72465;BME280;60471;52.150;4.508;2023-08-20T12:34:00;102039.97;;;29.43;39.94
72465;BME280;60471;52.150;4.508;2023-08-20T12:36:28;102038.66;;;29.56;39.65
72465;BME280;60471;52.150;4.508;2023-08-20T12:38:55;102042.50;;;29.37;38.64
72465;BME280;60471;52.150;4.508;2023-08-20T12:41:22;102037.81;;;29.55;39.07
72465;BME280;60471;52.150;4.508;2023-08-20T12:43:49;102032.03;;;30.15;36.95
72465;BME280;60471;52.150;4.508;2023-08-20T12:46:16;102021.53;;;30.68;36.62
72465;BME280;60471;52.150;4.508;2023-08-20T12:48:43;102021.47;;;30.12;37.52
72465;BME280;60471;52.150;4.508;2023-08-20T12:51:09;102020.75;;;31.21;35.23
72465;BME280;60471;52.150;4.508;2023-08-20T12:53:39;102030.78;;;31.75;34.67
72465;BME280;60471;52.150;4.508;2023-08-20T12:56:06;102030.09;;;31.72;33.87
72465;BME280;60471;52.150;4.508;2023-08-20T12:58:32;102027.06;;;31.13;33.88
72465;BME280;60471;52.150;4.508;2023-08-20T13:00:59;102026.38;;;30.88;34.03
72465;BME280;60471;52.150;4.508;2023-08-20T13:03:25;102018.31;;;30.64;34.85
72465;BME280;60471;52.150;4.508;2023-08-20T13:05:53;102021.88;;;30.48;35.41
72465;BME280;60471;52.150;4.508;2023-08-20T13:08:23;102020.75;;;31.13;34.94